createdAt,value
2022-10-13T00:00:23.734Z,1018.74
2022-10-13T00:01:23.737Z,1018.70
2022-10-13T00:02:23.674Z,1018.73
2022-10-13T00:03:23.647Z,1018.73
2022-10-13T00:04:23.654Z,1018.71
2022-10-13T00:05:23.632Z,1018.71
2022-10-13T00:06:23.525Z,1018.70
2022-10-13T00:07:23.480Z,1018.70
2022-10-13T00:08:23.462Z,1018.67
2022-10-13T00:09:23.432Z,1018.68
2022-10-13T00:10:23.379Z,1018.67
2022-10-13T00:11:23.410Z,1018.65
2022-10-13T00:12:23.320Z,1018.65
2022-10-13T00:13:23.277Z,1018.69
2022-10-13T00:14:23.291Z,1018.64
2022-10-13T00:15:23.194Z,1018.65
2022-10-13T00:16:23.175Z,1018.65
2022-10-13T00:17:23.238Z,1018.64
2022-10-13T00:18:23.108Z,1018.62
2022-10-13T00:19:23.060Z,1018.66
2022-10-13T00:20:23.026Z,1018.63
2022-10-13T00:21:23.011Z,1018.65
2022-10-13T00:22:23.036Z,1018.63
2022-10-13T00:23:22.934Z,1018.60
2022-10-13T00:24:22.877Z,1018.59
2022-10-13T00:25:22.844Z,1018.62
2022-10-13T00:26:22.853Z,1018.59
2022-10-13T00:27:22.775Z,1018.59
2022-10-13T00:28:22.804Z,1018.60
2022-10-13T00:29:22.755Z,1018.62
2022-10-13T00:30:22.656Z,1018.62
2022-10-13T00:31:22.637Z,1018.61
2022-10-13T00:32:22.599Z,1018.54
2022-10-13T00:33:22.557Z,1018.54
2022-10-13T00:34:22.567Z,1018.55
2022-10-13T00:35:22.476Z,1018.55
2022-10-13T00:36:22.448Z,1018.54
2022-10-13T00:37:22.452Z,1018.57
2022-10-13T00:38:22.382Z,1018.56
2022-10-13T00:39:22.394Z,1018.51
2022-10-13T00:40:22.328Z,1018.53
2022-10-13T00:41:22.270Z,1018.53
2022-10-13T00:42:22.219Z,1018.54
2022-10-13T00:43:22.195Z,1018.53
2022-10-13T00:44:22.168Z,1018.55
2022-10-13T00:45:22.205Z,1018.56
2022-10-13T00:46:22.107Z,1018.53
2022-10-13T00:47:22.069Z,1018.55
2022-10-13T00:48:22.024Z,1018.52
2022-10-13T00:49:21.968Z,1018.51
2022-10-13T00:50:21.970Z,1018.48
2022-10-13T00:51:21.961Z,1018.49
2022-10-13T00:52:21.864Z,1018.46
2022-10-13T00:53:21.830Z,1018.49
2022-10-13T00:54:21.827Z,1018.51
2022-10-13T00:55:21.789Z,1018.54
2022-10-13T00:56:21.791Z,1018.51
2022-10-13T00:57:21.695Z,1018.52
2022-10-13T00:58:21.667Z,1018.52
2022-10-13T00:59:21.633Z,1018.53
2022-10-13T01:00:21.579Z,1018.50
2022-10-13T01:01:21.607Z,1018.54
2022-10-13T01:02:21.800Z,1018.55
2022-10-13T01:03:21.468Z,1018.51
2022-10-13T01:04:21.467Z,1018.55
2022-10-13T01:05:21.415Z,1018.51
2022-10-13T01:06:23.819Z,1018.57
2022-10-13T01:07:21.329Z,1018.58
2022-10-13T01:08:21.288Z,1018.53
2022-10-13T01:09:21.257Z,1018.53
2022-10-13T01:10:21.220Z,1018.52
2022-10-13T01:11:21.252Z,1018.54
2022-10-13T01:12:21.599Z,1018.56
2022-10-13T01:13:21.123Z,1018.49
2022-10-13T01:14:21.098Z,1018.57
2022-10-13T01:15:21.093Z,1018.51
2022-10-13T01:16:21.187Z,1018.54
2022-10-13T01:17:20.971Z,1018.49
2022-10-13T01:18:20.939Z,1018.47
2022-10-13T01:19:20.908Z,1018.43
2022-10-13T01:20:20.885Z,1018.44
2022-10-13T01:21:20.992Z,1018.43
2022-10-13T01:22:21.301Z,1018.42
2022-10-13T01:23:21.938Z,1018.40
2022-10-13T01:24:20.734Z,1018.40
2022-10-13T01:25:20.683Z,1018.36
2022-10-13T01:26:20.748Z,1018.37
2022-10-13T01:27:20.623Z,1018.35
2022-10-13T01:28:20.666Z,1018.33
2022-10-13T01:29:20.573Z,1018.32
2022-10-13T01:30:20.518Z,1018.31
2022-10-13T01:31:20.535Z,1018.34
2022-10-13T01:32:20.995Z,1018.33
2022-10-13T01:33:20.395Z,1018.29
2022-10-13T01:34:20.363Z,1018.24
2022-10-13T01:35:20.336Z,1018.26
2022-10-13T01:36:20.287Z,1018.22
2022-10-13T01:37:20.324Z,1018.23
2022-10-13T01:38:20.231Z,1018.20
2022-10-13T01:39:20.183Z,1018.21
2022-10-13T01:40:20.229Z,1018.20
2022-10-13T01:41:20.120Z,1018.19
2022-10-13T01:42:20.580Z,1018.20
2022-10-13T01:43:20.045Z,1018.18
2022-10-13T01:44:20.020Z,1018.18
2022-10-13T01:45:20.017Z,1018.14
2022-10-13T01:46:20.001Z,1018.11
2022-10-13T01:47:20.029Z,1018.10
2022-10-13T01:48:19.866Z,1018.13
2022-10-13T01:49:19.864Z,1018.12
2022-10-13T01:50:19.808Z,1018.10
2022-10-13T01:51:19.819Z,1018.08
2022-10-13T01:52:20.153Z,1018.08
2022-10-13T01:53:19.785Z,1018.07
2022-10-13T01:54:19.654Z,1018.05
2022-10-13T01:55:19.613Z,1018.02
2022-10-13T01:56:19.580Z,1017.97
2022-10-13T01:57:19.542Z,1017.98
2022-10-13T01:58:19.576Z,1017.90
2022-10-13T01:59:19.589Z,1017.94
2022-10-13T02:00:19.449Z,1017.93
2022-10-13T02:01:19.419Z,1017.94
2022-10-13T02:02:19.803Z,1017.92
2022-10-13T02:03:19.328Z,1017.92
2022-10-13T02:04:19.299Z,1017.92
2022-10-13T02:05:19.350Z,1017.91
2022-10-13T02:06:19.224Z,1017.90
2022-10-13T02:07:19.187Z,1017.95
2022-10-13T02:08:19.181Z,1017.90
2022-10-13T02:09:21.948Z,1017.89
2022-10-13T02:10:19.141Z,1017.84
2022-10-13T02:11:19.111Z,1017.84
2022-10-13T02:12:19.394Z,1017.80
2022-10-13T02:13:19.024Z,1017.74
2022-10-13T02:14:18.967Z,1017.79
2022-10-13T02:15:18.917Z,1017.77
2022-10-13T02:16:18.901Z,1017.78
2022-10-13T02:17:18.913Z,1017.73
2022-10-13T02:18:18.813Z,1017.73
2022-10-13T02:19:18.819Z,1017.73
2022-10-13T02:20:18.732Z,1017.66
2022-10-13T02:21:18.709Z,1017.68
2022-10-13T02:22:18.919Z,1017.72
2022-10-13T02:23:18.716Z,1017.71
2022-10-13T02:24:18.667Z,1017.76
2022-10-13T02:25:18.547Z,1017.77
2022-10-13T02:26:18.533Z,1017.78
2022-10-13T02:27:18.496Z,1017.76
2022-10-13T02:28:18.493Z,1017.78
2022-10-13T02:29:18.489Z,1017.75
2022-10-13T02:30:18.384Z,1017.72
2022-10-13T02:31:18.357Z,1017.69
2022-10-13T02:32:18.393Z,1017.66
2022-10-13T02:33:18.256Z,1017.63
2022-10-13T02:34:18.275Z,1017.62
2022-10-13T02:35:18.253Z,1017.63
2022-10-13T02:36:18.147Z,1017.59
2022-10-13T02:37:18.107Z,1017.60
2022-10-13T02:38:18.106Z,1017.60
2022-10-13T02:39:18.056Z,1017.56
2022-10-13T02:40:18.072Z,1017.60
2022-10-13T02:41:17.972Z,1017.56
2022-10-13T02:42:18.261Z,1017.57
2022-10-13T02:43:17.967Z,1017.53
2022-10-13T02:44:17.941Z,1017.52
2022-10-13T02:45:18.157Z,1017.51
2022-10-13T02:46:17.789Z,1017.46
2022-10-13T02:47:17.762Z,1017.46
2022-10-13T02:48:17.764Z,1017.47
2022-10-13T02:49:17.681Z,1017.43
2022-10-13T02:50:17.797Z,1017.44
2022-10-13T02:51:17.712Z,1017.47
2022-10-13T02:52:17.935Z,1017.47
2022-10-13T02:53:17.536Z,1017.45
2022-10-13T02:54:17.522Z,1017.46
2022-10-13T02:55:17.575Z,1017.49
2022-10-13T02:56:17.433Z,1017.49
2022-10-13T02:57:17.462Z,1017.47
2022-10-13T02:58:17.396Z,1017.51
2022-10-13T02:59:17.330Z,1017.46
2022-10-13T03:00:17.283Z,1017.51
2022-10-13T03:01:17.290Z,1017.50
2022-10-13T03:02:17.508Z,1017.51
2022-10-13T03:03:17.247Z,1017.46
2022-10-13T03:04:17.141Z,1017.42
2022-10-13T03:05:17.109Z,1017.43
2022-10-13T03:06:17.069Z,1017.48
2022-10-13T03:07:17.067Z,1017.49
2022-10-13T03:08:17.031Z,1017.52
2022-10-13T03:09:17.031Z,1017.57
2022-10-13T03:10:16.951Z,1017.52
2022-10-13T03:11:16.904Z,1017.50
2022-10-13T03:12:17.047Z,1017.55
2022-10-13T03:13:16.834Z,1017.48
2022-10-13T03:14:16.819Z,1017.48
2022-10-13T03:15:16.870Z,1017.48
2022-10-13T03:16:16.736Z,1017.50
2022-10-13T03:17:16.687Z,1017.52
2022-10-13T03:18:16.656Z,1017.55
2022-10-13T03:19:16.744Z,1017.51
2022-10-13T03:20:16.607Z,1017.47
2022-10-13T03:21:16.535Z,1017.47
2022-10-13T03:22:16.589Z,1017.40
2022-10-13T03:23:16.456Z,1017.44
2022-10-13T03:24:16.513Z,1017.40
2022-10-13T03:25:16.404Z,1017.42
2022-10-13T03:26:16.353Z,1017.41
2022-10-13T03:27:16.311Z,1017.40
2022-10-13T03:28:16.332Z,1017.42
2022-10-13T03:29:16.245Z,1017.41
2022-10-13T03:30:16.348Z,1017.40
2022-10-13T03:31:16.183Z,1017.40
2022-10-13T03:32:16.151Z,1017.39
2022-10-13T03:33:16.108Z,1017.38
2022-10-13T03:34:16.100Z,1017.37
2022-10-13T03:35:16.058Z,1017.40
2022-10-13T03:36:16.066Z,1017.42
2022-10-13T03:37:15.977Z,1017.35
2022-10-13T03:38:15.999Z,1017.34
2022-10-13T03:39:15.901Z,1017.31
2022-10-13T03:40:15.862Z,1017.24
2022-10-13T03:41:15.822Z,1017.27
2022-10-13T03:42:15.790Z,1017.23
2022-10-13T03:43:15.762Z,1017.26
2022-10-13T03:44:15.768Z,1017.28
2022-10-13T03:45:15.765Z,1017.24
2022-10-13T03:46:15.650Z,1017.23
2022-10-13T03:47:15.628Z,1017.22
2022-10-13T03:48:15.594Z,1017.26
2022-10-13T03:49:15.552Z,1017.24
2022-10-13T03:50:15.555Z,1017.26
2022-10-13T03:51:15.472Z,1017.23
2022-10-13T03:52:15.479Z,1017.23
2022-10-13T03:53:15.419Z,1017.23
2022-10-13T03:54:15.366Z,1017.25
2022-10-13T03:55:15.672Z,1017.24
2022-10-13T03:56:15.290Z,1017.29
2022-10-13T03:57:15.262Z,1017.28
2022-10-13T03:58:15.219Z,1017.30
2022-10-13T03:59:15.189Z,1017.30
2022-10-13T04:00:15.217Z,1017.27
2022-10-13T04:01:15.188Z,1017.30
2022-10-13T04:02:15.208Z,1017.30
2022-10-13T04:03:15.062Z,1017.30
2022-10-13T04:04:15.083Z,1017.32
2022-10-13T04:05:14.975Z,1017.29
2022-10-13T04:06:15.138Z,1017.29
2022-10-13T04:07:14.900Z,1017.24
2022-10-13T04:08:14.867Z,1017.28
2022-10-13T04:09:14.911Z,1017.26
2022-10-13T04:10:14.792Z,1017.27
2022-10-13T04:11:14.783Z,1017.28
2022-10-13T04:12:18.439Z,1017.28
2022-10-13T04:13:14.702Z,1017.32
2022-10-13T04:14:14.650Z,1017.26
2022-10-13T04:15:14.636Z,1017.26
2022-10-13T04:16:14.609Z,1017.27
2022-10-13T04:17:14.547Z,1017.25
2022-10-13T04:18:14.586Z,1017.30
2022-10-13T04:19:14.494Z,1017.28
2022-10-13T04:20:14.487Z,1017.27
2022-10-13T04:21:14.426Z,1017.26
2022-10-13T04:22:14.376Z,1017.24
2022-10-13T04:23:14.342Z,1017.25
2022-10-13T04:24:14.373Z,1017.26
2022-10-13T04:25:14.280Z,1017.24
2022-10-13T04:26:14.230Z,1017.22
2022-10-13T04:27:14.263Z,1017.18
2022-10-13T04:28:14.242Z,1017.20
2022-10-13T04:29:14.127Z,1017.16
2022-10-13T04:30:14.149Z,1017.15
2022-10-13T04:31:14.065Z,1017.13
2022-10-13T04:32:14.024Z,1017.08
2022-10-13T04:33:14.000Z,1017.11
2022-10-13T04:34:13.959Z,1017.11
2022-10-13T04:35:14.005Z,1017.10
2022-10-13T04:36:13.880Z,1017.08
2022-10-13T04:37:13.911Z,1017.10
2022-10-13T04:38:13.893Z,1017.13
2022-10-13T04:39:13.788Z,1017.08
2022-10-13T04:40:13.747Z,1017.10
2022-10-13T04:41:13.783Z,1017.09
2022-10-13T04:42:13.671Z,1017.08
2022-10-13T04:43:13.651Z,1017.09
2022-10-13T04:44:13.612Z,1017.07
2022-10-13T04:45:13.591Z,1017.08
2022-10-13T04:46:13.528Z,1017.08
2022-10-13T04:47:13.555Z,1017.07
2022-10-13T04:48:13.464Z,1017.03
2022-10-13T04:49:13.430Z,1017.03
2022-10-13T04:50:13.395Z,1017.04
2022-10-13T04:51:13.355Z,1017.06
2022-10-13T04:52:13.317Z,1017.06
2022-10-13T04:53:18.912Z,1017.01
2022-10-13T04:54:13.255Z,1017.02
2022-10-13T04:55:13.216Z,1017.00
2022-10-13T04:56:13.189Z,1017.00
2022-10-13T04:57:19.977Z,1017.01
2022-10-13T04:58:13.115Z,1016.96
2022-10-13T04:59:13.143Z,1016.97
2022-10-13T05:00:13.035Z,1016.99
2022-10-13T05:01:16.405Z,1016.97
2022-10-13T05:02:12.968Z,1016.93
2022-10-13T05:03:12.930Z,1016.94
2022-10-13T05:04:12.898Z,1016.93
2022-10-13T05:05:12.933Z,1016.89
2022-10-13T05:06:12.842Z,1016.94
2022-10-13T05:07:18.109Z,1016.92
2022-10-13T05:08:12.760Z,1016.90
2022-10-13T05:09:12.719Z,1016.94
2022-10-13T05:10:12.687Z,1016.89
2022-10-13T05:11:12.723Z,1016.86
2022-10-13T05:12:12.676Z,1016.89
2022-10-13T05:13:12.576Z,1016.85
2022-10-13T05:14:12.547Z,1016.82
2022-10-13T05:15:12.512Z,1016.79
2022-10-13T05:16:12.475Z,1016.80
2022-10-13T05:17:12.439Z,1016.81
2022-10-13T05:18:12.465Z,1016.80
2022-10-13T05:19:12.371Z,1016.77
2022-10-13T05:20:12.349Z,1016.78
2022-10-13T05:21:12.312Z,1016.81
2022-10-13T05:22:12.264Z,1016.82
2022-10-13T05:23:12.225Z,1016.80
2022-10-13T05:24:12.275Z,1016.79
2022-10-13T05:25:12.162Z,1016.80
2022-10-13T05:26:12.123Z,1016.77
2022-10-13T05:27:12.085Z,1016.77
2022-10-13T05:28:12.083Z,1016.73
2022-10-13T05:29:12.021Z,1016.77
2022-10-13T05:30:12.037Z,1016.76
2022-10-13T05:31:11.949Z,1016.75
2022-10-13T05:32:11.906Z,1016.76
2022-10-13T05:33:11.876Z,1016.76
2022-10-13T05:34:11.925Z,1016.75
2022-10-13T05:35:11.877Z,1016.73
2022-10-13T05:36:11.869Z,1016.72
2022-10-13T05:37:11.737Z,1016.78
2022-10-13T05:38:11.705Z,1016.74
2022-10-13T05:39:11.667Z,1016.75
2022-10-13T05:40:11.650Z,1016.72
2022-10-13T05:41:11.687Z,1016.77
2022-10-13T05:42:11.570Z,1016.79
2022-10-13T05:43:11.522Z,1016.82
2022-10-13T05:44:11.490Z,1016.84
2022-10-13T05:45:11.456Z,1016.85
2022-10-13T05:46:11.427Z,1016.86
2022-10-13T05:47:11.441Z,1016.85
2022-10-13T05:48:11.347Z,1016.83
2022-10-13T05:49:11.316Z,1016.83
2022-10-13T05:50:11.282Z,1016.83
2022-10-13T05:51:11.244Z,1016.84
2022-10-13T05:52:11.274Z,1016.83
2022-10-13T05:53:11.233Z,1016.86
2022-10-13T05:54:11.141Z,1016.85
2022-10-13T05:55:11.102Z,1016.84
2022-10-13T05:56:11.063Z,1016.86
2022-10-13T05:57:11.036Z,1016.86
2022-10-13T05:58:10.999Z,1016.88
2022-10-13T05:59:11.018Z,1016.90
2022-10-13T06:00:10.929Z,1016.88
2022-10-13T06:01:10.891Z,1016.91
2022-10-13T06:02:10.916Z,1016.85
2022-10-13T06:03:10.873Z,1016.90
2022-10-13T06:04:10.786Z,1016.87
2022-10-13T06:05:10.802Z,1016.86
2022-10-13T06:06:10.717Z,1016.90
2022-10-13T06:07:10.684Z,1016.90
2022-10-13T06:08:10.654Z,1016.89
2022-10-13T06:09:10.620Z,1016.88
2022-10-13T06:10:10.634Z,1016.87
2022-10-13T06:11:10.590Z,1016.88
2022-10-13T06:12:10.506Z,1016.87
2022-10-13T06:13:10.471Z,1016.91
2022-10-13T06:14:10.434Z,1016.90
2022-10-13T06:15:10.401Z,1016.91
2022-10-13T06:16:10.420Z,1016.92
2022-10-13T06:17:10.328Z,1016.95
2022-10-13T06:18:10.297Z,1016.96
2022-10-13T06:19:10.260Z,1016.93
2022-10-13T06:20:10.234Z,1016.92
2022-10-13T06:21:10.276Z,1016.94
2022-10-13T06:22:10.159Z,1016.91
2022-10-13T06:23:10.120Z,1016.94
2022-10-13T06:24:10.083Z,1016.96
2022-10-13T06:25:10.049Z,1016.93
2022-10-13T06:26:10.013Z,1016.91
2022-10-13T06:27:10.047Z,1016.94
2022-10-13T06:28:09.947Z,1016.95
2022-10-13T06:29:09.954Z,1016.94
2022-10-13T06:30:09.898Z,1016.92
2022-10-13T06:31:09.858Z,1016.87
2022-10-13T06:32:09.807Z,1016.83
2022-10-13T06:33:09.819Z,1016.86
2022-10-13T06:34:09.736Z,1016.88
2022-10-13T06:35:09.718Z,1016.83
2022-10-13T06:36:09.727Z,1016.83
2022-10-13T06:37:09.643Z,1016.85
2022-10-13T06:38:09.601Z,1016.84
2022-10-13T06:39:09.568Z,1016.80
2022-10-13T06:40:09.575Z,1016.81
2022-10-13T06:41:09.679Z,1016.83
2022-10-13T06:42:09.464Z,1016.82
2022-10-13T06:43:09.429Z,1016.82
2022-10-13T06:44:09.397Z,1016.78
2022-10-13T06:45:09.364Z,1016.77
2022-10-13T06:46:09.325Z,1016.81
2022-10-13T06:47:09.360Z,1016.76
2022-10-13T06:48:09.260Z,1016.76
2022-10-13T06:49:09.226Z,1016.78
2022-10-13T06:50:09.190Z,1016.78
2022-10-13T06:51:09.155Z,1016.78
2022-10-13T06:52:09.192Z,1016.80
2022-10-13T06:53:09.087Z,1016.79
2022-10-13T06:54:09.057Z,1016.77
2022-10-13T06:55:09.029Z,1016.73
2022-10-13T06:56:09.005Z,1016.71
2022-10-13T06:57:08.958Z,1016.73
2022-10-13T06:58:08.995Z,1016.73
2022-10-13T06:59:08.984Z,1016.78
2022-10-13T07:00:08.855Z,1016.75
2022-10-13T07:01:08.863Z,1016.76
2022-10-13T07:02:08.784Z,1016.74
2022-10-13T07:03:08.756Z,1016.73
2022-10-13T07:04:08.778Z,1016.77
2022-10-13T07:05:08.683Z,1016.71
2022-10-13T07:06:08.649Z,1016.75
2022-10-13T07:07:08.612Z,1016.77
2022-10-13T07:08:08.580Z,1016.77
2022-10-13T07:09:08.548Z,1016.75
2022-10-13T07:10:08.576Z,1016.73
2022-10-13T07:11:12.959Z,1016.70
2022-10-13T07:12:08.445Z,1016.66
2022-10-13T07:13:08.445Z,1016.68
2022-10-13T07:14:08.397Z,1016.66
2022-10-13T07:15:08.348Z,1016.67
2022-10-13T07:16:08.373Z,1016.67
2022-10-13T07:17:08.284Z,1016.65
2022-10-13T07:18:08.247Z,1016.67
2022-10-13T07:19:08.224Z,1016.67
2022-10-13T07:20:08.181Z,1016.67
2022-10-13T07:21:08.150Z,1016.67
2022-10-13T07:22:08.163Z,1016.59
2022-10-13T07:23:08.080Z,1016.61
2022-10-13T07:24:08.042Z,1016.60
2022-10-13T07:25:08.012Z,1016.62
2022-10-13T07:26:07.990Z,1016.61
2022-10-13T07:27:08.105Z,1016.57
2022-10-13T07:28:07.970Z,1016.56
2022-10-13T07:29:07.881Z,1016.58
2022-10-13T07:30:07.849Z,1016.60
2022-10-13T07:31:07.814Z,1016.63
2022-10-13T07:32:07.785Z,1016.57
2022-10-13T07:33:07.750Z,1016.58
2022-10-13T07:34:07.755Z,1016.59
2022-10-13T07:35:07.676Z,1016.60
2022-10-13T07:36:07.654Z,1016.64
2022-10-13T07:37:07.614Z,1016.61
2022-10-13T07:38:07.601Z,1016.61
2022-10-13T07:39:07.688Z,1016.66
2022-10-13T07:40:07.530Z,1016.63
2022-10-13T07:41:07.491Z,1016.62
2022-10-13T07:42:07.454Z,1016.63
2022-10-13T07:43:07.422Z,1016.62
2022-10-13T07:44:07.535Z,1016.65
2022-10-13T07:45:07.357Z,1016.68
2022-10-13T07:46:07.327Z,1016.68
2022-10-13T07:47:07.350Z,1016.65
2022-10-13T07:48:07.313Z,1016.62
2022-10-13T07:49:09.234Z,1016.63
2022-10-13T07:50:07.203Z,1016.65
2022-10-13T07:51:07.170Z,1016.61
2022-10-13T07:52:07.132Z,1016.64
2022-10-13T07:53:07.157Z,1016.63
2022-10-13T07:54:07.142Z,1016.62
2022-10-13T07:55:07.051Z,1016.59
2022-10-13T07:56:07.004Z,1016.62
2022-10-13T07:57:06.976Z,1016.63
2022-10-13T07:58:07.005Z,1016.60
2022-10-13T07:59:06.914Z,1016.64
2022-10-13T08:00:06.989Z,1016.56
2022-10-13T08:01:06.852Z,1016.55
2022-10-13T08:02:06.820Z,1016.58
2022-10-13T08:03:06.786Z,1016.55
2022-10-13T08:04:06.759Z,1016.53
2022-10-13T08:05:06.790Z,1016.50
2022-10-13T08:06:06.695Z,1016.52
2022-10-13T08:07:06.677Z,1016.51
2022-10-13T08:08:06.647Z,1016.49
2022-10-13T08:09:06.599Z,1016.47
2022-10-13T08:10:06.689Z,1016.50
2022-10-13T08:11:06.611Z,1016.47
2022-10-13T08:12:06.514Z,1016.45
2022-10-13T08:13:06.476Z,1016.44
2022-10-13T08:14:06.450Z,1016.44
2022-10-13T08:15:06.763Z,1016.46
2022-10-13T08:16:06.489Z,1016.48
2022-10-13T08:17:06.364Z,1016.46
2022-10-13T08:18:06.326Z,1016.46
2022-10-13T08:19:06.297Z,1016.44
2022-10-13T08:20:06.261Z,1016.48
2022-10-13T08:22:09.582Z,1016.47
2022-10-13T08:23:06.171Z,1016.49
2022-10-13T08:24:06.142Z,1016.47
2022-10-13T08:25:06.113Z,1016.43
2022-10-13T08:26:06.092Z,1016.41
2022-10-13T08:27:06.115Z,1016.40
2022-10-13T08:28:06.037Z,1016.42
2022-10-13T08:29:22.862Z,1016.42
2022-10-13T08:30:05.986Z,1016.43
2022-10-13T08:31:06.004Z,1016.42
2022-10-13T08:32:05.954Z,1016.39
2022-10-13T08:33:05.876Z,1016.39
2022-10-13T08:34:05.840Z,1016.38
2022-10-13T08:35:05.809Z,1016.40
2022-10-13T08:36:05.811Z,1016.37
2022-10-13T08:37:05.812Z,1016.36
2022-10-13T08:38:05.748Z,1016.32
2022-10-13T08:39:05.698Z,1016.29
2022-10-13T08:40:05.666Z,1016.35
2022-10-13T08:41:05.637Z,1016.31
2022-10-13T08:42:05.655Z,1016.29
2022-10-13T08:43:05.571Z,1016.25
2022-10-13T08:44:41.288Z,1016.25
2022-10-13T08:45:35.805Z,1016.28
2022-10-13T08:46:05.480Z,1016.23
2022-10-13T08:47:05.516Z,1016.24
2022-10-13T08:48:05.565Z,1016.27
2022-10-13T08:49:05.395Z,1016.23
2022-10-13T08:50:05.358Z,1016.23
2022-10-13T08:51:05.330Z,1016.23
2022-10-13T08:52:05.304Z,1016.24
2022-10-13T08:53:05.326Z,1016.24
2022-10-13T08:54:05.238Z,1016.24
2022-10-13T08:55:05.232Z,1016.21
2022-10-13T08:56:05.186Z,1016.23
2022-10-13T08:57:05.226Z,1016.22
2022-10-13T08:58:05.180Z,1016.22
2022-10-13T08:59:05.102Z,1016.26
2022-10-13T09:00:05.066Z,1016.22
2022-10-13T09:01:05.038Z,1016.28
2022-10-13T09:02:05.098Z,1016.22
2022-10-13T09:03:04.979Z,1016.22
2022-10-13T09:04:05.070Z,1016.26
2022-10-13T09:05:04.918Z,1016.26
2022-10-13T09:06:04.987Z,1016.22
2022-10-13T09:07:04.863Z,1016.25
2022-10-13T09:08:04.831Z,1016.23
2022-10-13T09:09:04.799Z,1016.21
2022-10-13T09:10:04.850Z,1016.21
2022-10-13T09:11:04.744Z,1016.20
2022-10-13T09:12:04.711Z,1016.19
2022-10-13T09:13:04.683Z,1016.19
2022-10-13T09:14:04.665Z,1016.22
2022-10-13T09:15:04.626Z,1016.22
2022-10-13T09:16:04.657Z,1016.21
2022-10-13T09:17:04.605Z,1016.20
2022-10-13T09:18:04.542Z,1016.23
2022-10-13T09:19:04.531Z,1016.22
2022-10-13T09:20:04.534Z,1016.22
2022-10-13T09:21:04.447Z,1016.20
2022-10-13T09:22:04.474Z,1016.21
2022-10-13T09:23:04.429Z,1016.21
2022-10-13T09:24:04.362Z,1016.22
2022-10-13T09:25:04.379Z,1016.20
2022-10-13T09:26:04.301Z,1016.21
2022-10-13T09:27:04.276Z,1016.21
2022-10-13T09:28:04.300Z,1016.23
2022-10-13T09:29:04.220Z,1016.23
2022-10-13T09:30:04.206Z,1016.24
2022-10-13T09:31:04.255Z,1016.27
2022-10-13T09:32:04.130Z,1016.27
2022-10-13T09:33:04.110Z,1016.24
2022-10-13T09:34:04.077Z,1016.27
2022-10-13T09:35:04.063Z,1016.29
2022-10-13T09:36:04.063Z,1016.29
2022-10-13T09:37:04.004Z,1016.27
2022-10-13T09:38:03.973Z,1016.31
2022-10-13T09:39:03.931Z,1016.29
2022-10-13T09:40:03.904Z,1016.30
2022-10-13T09:41:03.930Z,1016.28
2022-10-13T09:42:03.849Z,1016.32
2022-10-13T09:43:03.822Z,1016.29
2022-10-13T09:44:03.790Z,1016.31
2022-10-13T09:45:03.782Z,1016.34
2022-10-13T09:46:04.224Z,1016.30
2022-10-13T09:47:03.704Z,1016.26
2022-10-13T09:48:03.698Z,1016.27
2022-10-13T09:49:03.652Z,1016.31
2022-10-13T09:50:07.539Z,1016.30
2022-10-13T09:51:04.548Z,1016.30
2022-10-13T09:52:03.570Z,1016.25
2022-10-13T09:53:03.539Z,1016.24
2022-10-13T09:54:03.503Z,1016.27
2022-10-13T09:55:03.479Z,1016.27
2022-10-13T09:56:03.458Z,1016.25
2022-10-13T09:57:03.496Z,1016.26
2022-10-13T09:58:03.402Z,1016.21
2022-10-13T09:59:03.364Z,1016.21
2022-10-13T10:00:03.478Z,1016.23
2022-10-13T10:01:03.316Z,1016.23
2022-10-13T10:02:03.295Z,1016.23
2022-10-13T10:03:03.301Z,1016.15
2022-10-13T10:04:03.280Z,1016.16
2022-10-13T10:05:03.212Z,1016.13
2022-10-13T10:06:03.274Z,1016.13
2022-10-13T10:07:03.164Z,1016.09
2022-10-13T10:08:03.112Z,1016.07
2022-10-13T10:09:04.580Z,1016.08
2022-10-13T10:10:03.068Z,1016.10
2022-10-13T10:11:03.027Z,1016.11
2022-10-13T10:12:03.001Z,1016.05
2022-10-13T10:13:02.978Z,1016.04
2022-10-13T10:14:02.962Z,1016.02
2022-10-13T10:15:02.994Z,1016.08
2022-10-13T10:16:02.887Z,1016.07
2022-10-13T10:17:09.556Z,1016.04
2022-10-13T10:18:02.858Z,1016.02
2022-10-13T10:19:02.808Z,1016.01
2022-10-13T10:20:02.783Z,1015.96
2022-10-13T10:21:02.827Z,1015.92
2022-10-13T10:22:02.740Z,1015.92
2022-10-13T10:23:02.702Z,1015.87
2022-10-13T10:24:02.669Z,1015.85
2022-10-13T10:25:02.641Z,1015.85
2022-10-13T10:26:02.612Z,1015.83
2022-10-13T10:27:02.662Z,1015.83
2022-10-13T10:28:02.561Z,1015.81
2022-10-13T10:29:02.737Z,1015.77
2022-10-13T10:30:02.497Z,1015.81
2022-10-13T10:31:02.480Z,1015.87
2022-10-13T10:32:02.448Z,1015.79
2022-10-13T10:33:02.485Z,1015.78
2022-10-13T10:34:02.395Z,1015.79
2022-10-13T10:35:02.363Z,1015.79
2022-10-13T10:36:02.348Z,1015.80
2022-10-13T10:37:02.312Z,1015.76
2022-10-13T10:38:02.277Z,1015.80
2022-10-13T10:39:02.313Z,1015.79
2022-10-13T10:40:02.220Z,1015.71
2022-10-13T10:41:02.205Z,1015.71
2022-10-13T10:42:02.167Z,1015.72
2022-10-13T10:43:02.210Z,1015.66
2022-10-13T10:44:02.111Z,1015.69
2022-10-13T10:45:02.092Z,1015.65
2022-10-13T10:46:02.050Z,1015.64
2022-10-13T10:47:02.019Z,1015.64
2022-10-13T10:48:02.004Z,1015.60
2022-10-13T10:49:02.024Z,1015.66
2022-10-13T10:50:01.944Z,1015.64
2022-10-13T10:51:01.914Z,1015.70
2022-10-13T10:52:01.882Z,1015.72
2022-10-13T10:53:01.860Z,1015.72
2022-10-13T10:54:01.892Z,1015.72
2022-10-13T10:55:01.795Z,1015.73
2022-10-13T10:56:01.775Z,1015.72
2022-10-13T10:57:01.748Z,1015.72
2022-10-13T10:58:01.720Z,1015.72
2022-10-13T10:59:01.772Z,1015.74
2022-10-13T11:00:01.659Z,1015.75
2022-10-13T11:01:01.631Z,1015.72
2022-10-13T11:02:01.599Z,1015.76
2022-10-13T11:03:01.579Z,1015.70
2022-10-13T11:04:01.612Z,1015.70
2022-10-13T11:05:05.354Z,1015.68
2022-10-13T11:06:01.488Z,1015.68
2022-10-13T11:07:01.460Z,1015.69
2022-10-13T11:08:01.454Z,1015.68
2022-10-13T11:09:01.414Z,1015.71
2022-10-13T11:10:01.453Z,1015.69
2022-10-13T11:11:01.388Z,1015.63
2022-10-13T11:12:01.429Z,1015.63
2022-10-13T11:13:01.294Z,1015.65
2022-10-13T11:14:01.287Z,1015.61
2022-10-13T11:15:01.237Z,1015.58
2022-10-13T11:16:01.212Z,1015.56
2022-10-13T11:17:01.182Z,1015.52
2022-10-13T11:18:01.223Z,1015.54
2022-10-13T11:19:01.135Z,1015.51
2022-10-13T11:20:01.090Z,1015.54
2022-10-13T11:21:01.072Z,1015.52
2022-10-13T11:22:01.282Z,1015.55
2022-10-13T11:23:01.054Z,1015.49
2022-10-13T11:24:03.889Z,1015.49
2022-10-13T11:25:00.963Z,1015.46
2022-10-13T11:26:00.930Z,1015.42
2022-10-13T11:27:03.686Z,1015.38
2022-10-13T11:28:00.951Z,1015.35
2022-10-13T11:29:00.845Z,1015.34
2022-10-13T11:30:00.865Z,1015.31
2022-10-13T11:31:00.785Z,1015.24
2022-10-13T11:32:00.766Z,1015.25
2022-10-13T11:33:00.736Z,1015.26
2022-10-13T11:34:00.739Z,1015.23
2022-10-13T11:35:00.685Z,1015.23
2022-10-13T11:36:00.701Z,1015.23
2022-10-13T11:37:00.622Z,1015.20
2022-10-13T11:38:09.283Z,1015.15
2022-10-13T11:39:00.587Z,1015.12
2022-10-13T11:40:00.532Z,1015.09
2022-10-13T11:41:00.514Z,1015.08
2022-10-13T11:42:00.549Z,1015.07
2022-10-13T11:43:02.708Z,1015.09
2022-10-13T11:44:00.416Z,1015.07
2022-10-13T11:45:00.412Z,1015.06
2022-10-13T11:46:00.361Z,1015.07
2022-10-13T11:47:00.335Z,1015.01
2022-10-13T11:48:00.407Z,1015.05
2022-10-13T11:49:00.319Z,1015.02
2022-10-13T11:50:00.264Z,1015.05
2022-10-13T11:51:00.236Z,1015.05
2022-10-13T11:52:00.320Z,1015.08
2022-10-13T11:53:00.174Z,1015.14
2022-10-13T11:54:00.142Z,1015.07
2022-10-13T11:55:00.123Z,1015.09
2022-10-13T11:56:00.142Z,1015.07
2022-10-13T11:57:00.067Z,1015.08
2022-10-13T11:58:00.156Z,1015.06
2022-10-13T11:59:00.008Z,1015.07
2022-10-13T12:00:00.044Z,1015.05
2022-10-13T12:00:59.956Z,1015.12
2022-10-13T12:01:59.927Z,1015.16
2022-10-13T12:03:00.037Z,1015.19
2022-10-13T12:03:59.924Z,1015.19
2022-10-13T12:04:59.867Z,1015.18
2022-10-13T12:05:59.835Z,1015.17